sensor_id;sensor_type;location;lat;lon;timestamp;P1;durP1;ratioP1;P2;durP2;ratioP2
69912;SDS011;57198;52.082;5.108;2022-09-23T00:00:44;9.00;;;7.88;;
69912;SDS011;57198;52.082;5.108;2022-09-23T00:03:12;10.43;;;8.27;;
69912;SDS011;57198;52.082;5.108;2022-09-23T00:05:40;8.82;;;7.57;;
69912;SDS011;57198;52.082;5.108;2022-09-23T00:08:09;10.57;;;7.55;;
69912;SDS011;57198;52.082;5.108;2022-09-23T00:10:38;9.45;;;8.13;;
69912;SDS011;57198;52.082;5.108;2022-09-23T00:13:06;10.27;;;7.95;;
69912;SDS011;57198;52.082;5.108;2022-09-23T00:15:37;9.50;;;8.00;;
69912;SDS011;57198;52.082;5.108;2022-09-23T00:18:05;9.55;;;8.55;;
69912;SDS011;57198;52.082;5.108;2022-09-23T00:20:33;11.68;;;8.57;;
69912;SDS011;57198;52.082;5.108;2022-09-23T00:23:01;9.80;;;8.00;;
69912;SDS011;57198;52.082;5.108;2022-09-23T00:25:29;11.82;;;8.18;;
69912;SDS011;57198;52.082;5.108;2022-09-23T00:27:56;9.17;;;8.23;;
69912;SDS011;57198;52.082;5.108;2022-09-23T00:30:24;10.05;;;8.30;;
69912;SDS011;57198;52.082;5.108;2022-09-23T00:32:51;12.48;;;8.18;;
69912;SDS011;57198;52.082;5.108;2022-09-23T00:35:19;9.10;;;7.30;;
69912;SDS011;57198;52.082;5.108;2022-09-23T00:37:46;8.60;;;7.70;;
69912;SDS011;57198;52.082;5.108;2022-09-23T00:40:13;9.63;;;7.57;;
69912;SDS011;57198;52.082;5.108;2022-09-23T00:42:45;10.80;;;8.32;;
69912;SDS011;57198;52.082;5.108;2022-09-23T00:45:13;9.90;;;8.20;;
69912;SDS011;57198;52.082;5.108;2022-09-23T00:47:44;11.63;;;8.50;;
69912;SDS011;57198;52.082;5.108;2022-09-23T00:52:53;10.10;;;8.47;;
69912;SDS011;57198;52.082;5.108;2022-09-23T00:55:23;9.90;;;8.00;;
69912;SDS011;57198;52.082;5.108;2022-09-23T00:57:51;10.57;;;9.15;;
69912;SDS011;57198;52.082;5.108;2022-09-23T01:00:20;14.10;;;8.55;;
69912;SDS011;57198;52.082;5.108;2022-09-23T01:02:48;11.75;;;9.02;;
69912;SDS011;57198;52.082;5.108;2022-09-23T01:05:16;10.83;;;7.90;;
69912;SDS011;57198;52.082;5.108;2022-09-23T01:07:44;10.35;;;7.95;;
69912;SDS011;57198;52.082;5.108;2022-09-23T01:10:11;13.38;;;8.18;;
69912;SDS011;57198;52.082;5.108;2022-09-23T01:12:57;10.65;;;8.43;;
69912;SDS011;57198;52.082;5.108;2022-09-23T01:15:29;11.43;;;8.70;;
69912;SDS011;57198;52.082;5.108;2022-09-23T01:33:54;13.50;;;9.90;;
69912;SDS011;57198;52.082;5.108;2022-09-23T01:38:55;12.50;;;10.10;;
69912;SDS011;57198;52.082;5.108;2022-09-23T01:46:26;11.77;;;9.70;;
69912;SDS011;57198;52.082;5.108;2022-09-23T01:51:24;11.68;;;10.07;;
69912;SDS011;57198;52.082;5.108;2022-09-23T01:56:37;9.90;;;8.87;;
69912;SDS011;57198;52.082;5.108;2022-09-23T02:04:24;12.00;;;10.05;;
69912;SDS011;57198;52.082;5.108;2022-09-23T02:06:58;12.07;;;10.40;;
69912;SDS011;57198;52.082;5.108;2022-09-23T02:09:27;12.40;;;10.47;;
69912;SDS011;57198;52.082;5.108;2022-09-23T02:11:59;10.63;;;9.30;;
69912;SDS011;57198;52.082;5.108;2022-09-23T02:14:32;12.02;;;9.85;;
69912;SDS011;57198;52.082;5.108;2022-09-23T02:17:03;12.07;;;9.15;;
69912;SDS011;57198;52.082;5.108;2022-09-23T02:19:40;10.63;;;9.18;;
69912;SDS011;57198;52.082;5.108;2022-09-23T02:22:14;10.87;;;9.77;;
69912;SDS011;57198;52.082;5.108;2022-09-23T02:24:43;10.52;;;9.43;;
69912;SDS011;57198;52.082;5.108;2022-09-23T02:27:23;12.48;;;10.50;;
69912;SDS011;57198;52.082;5.108;2022-09-23T02:40:01;12.07;;;10.88;;
69912;SDS011;57198;52.082;5.108;2022-09-23T02:43:18;14.43;;;10.73;;
69912;SDS011;57198;52.082;5.108;2022-09-23T02:45:19;11.68;;;10.02;;
69912;SDS011;57198;52.082;5.108;2022-09-23T02:47:57;12.47;;;10.63;;
69912;SDS011;57198;52.082;5.108;2022-09-23T02:50:27;14.75;;;10.80;;
69912;SDS011;57198;52.082;5.108;2022-09-23T02:52:57;16.23;;;10.52;;
69912;SDS011;57198;52.082;5.108;2022-09-23T02:55:24;12.40;;;10.65;;
69912;SDS011;57198;52.082;5.108;2022-09-23T02:57:57;12.98;;;10.40;;
69912;SDS011;57198;52.082;5.108;2022-09-23T03:00:28;12.87;;;10.37;;
69912;SDS011;57198;52.082;5.108;2022-09-23T03:03:20;11.68;;;10.48;;
69912;SDS011;57198;52.082;5.108;2022-09-23T03:05:51;14.77;;;10.48;;
69912;SDS011;57198;52.082;5.108;2022-09-23T03:09:03;11.63;;;10.43;;
69912;SDS011;57198;52.082;5.108;2022-09-23T03:11:10;10.70;;;9.70;;
69912;SDS011;57198;52.082;5.108;2022-09-23T03:21:33;14.23;;;10.48;;
69912;SDS011;57198;52.082;5.108;2022-09-23T03:24:04;10.80;;;9.70;;
69912;SDS011;57198;52.082;5.108;2022-09-23T03:26:33;11.57;;;9.97;;
69912;SDS011;57198;52.082;5.108;2022-09-23T03:29:03;13.50;;;10.50;;
69912;SDS011;57198;52.082;5.108;2022-09-23T03:31:31;15.57;;;9.50;;
69912;SDS011;57198;52.082;5.108;2022-09-23T03:34:00;12.45;;;10.30;;
69912;SDS011;57198;52.082;5.108;2022-09-23T03:36:33;11.50;;;10.35;;
69912;SDS011;57198;52.082;5.108;2022-09-23T03:39:34;12.80;;;10.40;;
69912;SDS011;57198;52.082;5.108;2022-09-23T03:42:04;14.20;;;10.40;;
69912;SDS011;57198;52.082;5.108;2022-09-23T03:44:34;11.52;;;10.32;;
69912;SDS011;57198;52.082;5.108;2022-09-23T03:47:04;10.40;;;9.35;;
69912;SDS011;57198;52.082;5.108;2022-09-23T03:49:33;13.18;;;10.27;;
69912;SDS011;57198;52.082;5.108;2022-09-23T03:52:01;12.03;;;10.83;;
69912;SDS011;57198;52.082;5.108;2022-09-23T03:54:29;13.90;;;10.98;;
69912;SDS011;57198;52.082;5.108;2022-09-23T03:56:57;15.07;;;11.10;;
69912;SDS011;57198;52.082;5.108;2022-09-23T03:59:24;11.40;;;10.20;;
69912;SDS011;57198;52.082;5.108;2022-09-23T04:01:52;11.43;;;10.00;;
69912;SDS011;57198;52.082;5.108;2022-09-23T04:04:20;14.80;;;10.20;;
69912;SDS011;57198;52.082;5.108;2022-09-23T04:06:48;15.18;;;10.57;;
69912;SDS011;57198;52.082;5.108;2022-09-23T04:09:15;13.38;;;10.25;;
69912;SDS011;57198;52.082;5.108;2022-09-23T04:11:42;13.25;;;10.70;;
69912;SDS011;57198;52.082;5.108;2022-09-23T04:14:10;15.52;;;10.80;;
69912;SDS011;57198;52.082;5.108;2022-09-23T04:16:37;13.13;;;11.17;;
69912;SDS011;57198;52.082;5.108;2022-09-23T04:19:05;14.35;;;10.43;;
69912;SDS011;57198;52.082;5.108;2022-09-23T04:21:36;12.68;;;10.27;;
69912;SDS011;57198;52.082;5.108;2022-09-23T04:24:04;12.25;;;10.43;;
69912;SDS011;57198;52.082;5.108;2022-09-23T04:26:32;11.95;;;10.65;;
69912;SDS011;57198;52.082;5.108;2022-09-23T04:29:00;14.43;;;9.73;;
69912;SDS011;57198;52.082;5.108;2022-09-23T04:31:27;12.10;;;9.98;;
69912;SDS011;57198;52.082;5.108;2022-09-23T04:33:55;10.98;;;9.88;;
69912;SDS011;57198;52.082;5.108;2022-09-23T04:36:23;12.18;;;10.32;;
69912;SDS011;57198;52.082;5.108;2022-09-23T04:38:51;13.88;;;11.07;;
69912;SDS011;57198;52.082;5.108;2022-09-23T04:41:18;13.07;;;10.70;;
69912;SDS011;57198;52.082;5.108;2022-09-23T04:43:46;15.20;;;10.60;;
69912;SDS011;57198;52.082;5.108;2022-09-23T04:46:14;14.32;;;11.30;;
69912;SDS011;57198;52.082;5.108;2022-09-23T04:48:41;13.20;;;10.55;;
69912;SDS011;57198;52.082;5.108;2022-09-23T04:51:13;13.27;;;10.15;;
69912;SDS011;57198;52.082;5.108;2022-09-23T04:53:41;14.47;;;10.13;;
69912;SDS011;57198;52.082;5.108;2022-09-23T04:56:11;13.07;;;10.23;;
69912;SDS011;57198;52.082;5.108;2022-09-23T04:58:39;13.02;;;10.70;;
69912;SDS011;57198;52.082;5.108;2022-09-23T05:01:14;13.52;;;10.70;;
69912;SDS011;57198;52.082;5.108;2022-09-23T05:03:42;12.00;;;10.20;;
69912;SDS011;57198;52.082;5.108;2022-09-23T05:06:10;15.50;;;11.00;;
69912;SDS011;57198;52.082;5.108;2022-09-23T05:08:45;13.65;;;10.82;;
69912;SDS011;57198;52.082;5.108;2022-09-23T05:11:12;14.80;;;10.70;;
69912;SDS011;57198;52.082;5.108;2022-09-23T05:13:39;13.77;;;11.43;;
69912;SDS011;57198;52.082;5.108;2022-09-23T05:16:08;18.52;;;11.35;;
69912;SDS011;57198;52.082;5.108;2022-09-23T05:18:38;16.43;;;11.47;;
69912;SDS011;57198;52.082;5.108;2022-09-23T05:21:09;12.77;;;10.80;;
69912;SDS011;57198;52.082;5.108;2022-09-23T05:23:37;12.38;;;10.30;;
69912;SDS011;57198;52.082;5.108;2022-09-23T05:26:07;14.13;;;10.02;;
69912;SDS011;57198;52.082;5.108;2022-09-23T05:28:35;15.77;;;11.35;;
69912;SDS011;57198;52.082;5.108;2022-09-23T05:31:05;14.53;;;10.40;;
69912;SDS011;57198;52.082;5.108;2022-09-23T05:33:34;22.05;;;10.45;;
69912;SDS011;57198;52.082;5.108;2022-09-23T05:36:02;14.07;;;10.75;;
69912;SDS011;57198;52.082;5.108;2022-09-23T05:38:30;13.90;;;9.90;;
69912;SDS011;57198;52.082;5.108;2022-09-23T05:40:58;13.88;;;10.45;;
69912;SDS011;57198;52.082;5.108;2022-09-23T05:43:26;17.77;;;11.00;;
69912;SDS011;57198;52.082;5.108;2022-09-23T05:48:34;13.48;;;9.75;;
69912;SDS011;57198;52.082;5.108;2022-09-23T05:51:02;12.38;;;10.35;;
69912;SDS011;57198;52.082;5.108;2022-09-23T05:53:30;20.13;;;9.88;;
69912;SDS011;57198;52.082;5.108;2022-09-23T05:55:57;14.07;;;10.90;;
69912;SDS011;57198;52.082;5.108;2022-09-23T05:58:25;14.40;;;10.82;;
69912;SDS011;57198;52.082;5.108;2022-09-23T06:00:53;14.13;;;9.85;;
69912;SDS011;57198;52.082;5.108;2022-09-23T06:03:22;12.38;;;9.18;;
69912;SDS011;57198;52.082;5.108;2022-09-23T06:05:53;14.45;;;9.45;;
69912;SDS011;57198;52.082;5.108;2022-09-23T06:08:21;14.13;;;10.73;;
69912;SDS011;57198;52.082;5.108;2022-09-23T06:10:48;13.10;;;9.85;;
69912;SDS011;57198;52.082;5.108;2022-09-23T06:13:20;14.55;;;9.27;;
69912;SDS011;57198;52.082;5.108;2022-09-23T06:15:47;16.27;;;10.00;;
69912;SDS011;57198;52.082;5.108;2022-09-23T06:18:15;13.25;;;9.48;;
69912;SDS011;57198;52.082;5.108;2022-09-23T06:20:42;12.27;;;10.73;;
69912;SDS011;57198;52.082;5.108;2022-09-23T06:23:10;13.55;;;10.70;;
69912;SDS011;57198;52.082;5.108;2022-09-23T06:25:37;12.63;;;9.23;;
69912;SDS011;57198;52.082;5.108;2022-09-23T06:28:04;12.77;;;9.68;;
69912;SDS011;57198;52.082;5.108;2022-09-23T06:30:37;13.05;;;9.80;;
69912;SDS011;57198;52.082;5.108;2022-09-23T06:33:05;13.13;;;9.67;;
69912;SDS011;57198;52.082;5.108;2022-09-23T06:35:32;13.43;;;10.32;;
69912;SDS011;57198;52.082;5.108;2022-09-23T06:38:02;14.90;;;9.98;;
69912;SDS011;57198;52.082;5.108;2022-09-23T06:40:30;11.95;;;9.00;;
69912;SDS011;57198;52.082;5.108;2022-09-23T06:42:58;14.60;;;9.45;;
69912;SDS011;57198;52.082;5.108;2022-09-23T06:45:26;19.60;;;10.70;;
69912;SDS011;57198;52.082;5.108;2022-09-23T06:47:54;21.83;;;11.45;;
69912;SDS011;57198;52.082;5.108;2022-09-23T06:50:21;18.08;;;10.55;;
69912;SDS011;57198;52.082;5.108;2022-09-23T06:52:52;19.85;;;10.60;;
69912;SDS011;57198;52.082;5.108;2022-09-23T06:55:22;10.80;;;8.80;;
69912;SDS011;57198;52.082;5.108;2022-09-23T06:57:50;12.13;;;9.83;;
69912;SDS011;57198;52.082;5.108;2022-09-23T07:00:17;13.88;;;9.30;;
69912;SDS011;57198;52.082;5.108;2022-09-23T07:02:45;13.98;;;9.00;;
69912;SDS011;57198;52.082;5.108;2022-09-23T07:05:12;16.23;;;9.63;;
69912;SDS011;57198;52.082;5.108;2022-09-23T07:07:42;15.75;;;8.95;;
69912;SDS011;57198;52.082;5.108;2022-09-23T07:10:10;11.33;;;9.60;;
69912;SDS011;57198;52.082;5.108;2022-09-23T07:12:37;12.70;;;9.60;;
69912;SDS011;57198;52.082;5.108;2022-09-23T07:15:05;11.70;;;8.95;;
69912;SDS011;57198;52.082;5.108;2022-09-23T07:17:33;14.48;;;9.02;;
69912;SDS011;57198;52.082;5.108;2022-09-23T07:20:00;14.73;;;9.10;;
69912;SDS011;57198;52.082;5.108;2022-09-23T07:22:27;15.03;;;12.03;;
69912;SDS011;57198;52.082;5.108;2022-09-23T07:24:55;10.35;;;8.57;;
69912;SDS011;57198;52.082;5.108;2022-09-23T07:27:23;11.45;;;8.88;;
69912;SDS011;57198;52.082;5.108;2022-09-23T07:29:51;12.85;;;9.02;;
69912;SDS011;57198;52.082;5.108;2022-09-23T07:32:19;12.65;;;10.25;;
69912;SDS011;57198;52.082;5.108;2022-09-23T07:34:47;14.20;;;8.77;;
69912;SDS011;57198;52.082;5.108;2022-09-23T07:37:15;11.27;;;8.65;;
69912;SDS011;57198;52.082;5.108;2022-09-23T07:39:43;10.40;;;8.38;;
69912;SDS011;57198;52.082;5.108;2022-09-23T07:42:10;15.35;;;9.27;;
69912;SDS011;57198;52.082;5.108;2022-09-23T07:44:39;9.73;;;8.73;;
69912;SDS011;57198;52.082;5.108;2022-09-23T07:47:13;14.60;;;8.83;;
69912;SDS011;57198;52.082;5.108;2022-09-23T07:49:41;11.82;;;8.35;;
69912;SDS011;57198;52.082;5.108;2022-09-23T07:52:08;11.98;;;8.20;;
69912;SDS011;57198;52.082;5.108;2022-09-23T07:54:36;9.32;;;7.60;;
69912;SDS011;57198;52.082;5.108;2022-09-23T07:57:03;12.55;;;8.68;;
69912;SDS011;57198;52.082;5.108;2022-09-23T07:59:30;10.93;;;7.40;;
69912;SDS011;57198;52.082;5.108;2022-09-23T08:01:58;11.68;;;7.75;;
69912;SDS011;57198;52.082;5.108;2022-09-23T08:04:27;11.32;;;7.10;;
69912;SDS011;57198;52.082;5.108;2022-09-23T08:06:56;10.38;;;6.38;;
69912;SDS011;57198;52.082;5.108;2022-09-23T08:09:24;11.02;;;6.93;;
69912;SDS011;57198;52.082;5.108;2022-09-23T08:11:52;14.97;;;7.23;;
69912;SDS011;57198;52.082;5.108;2022-09-23T08:14:20;10.35;;;6.68;;
69912;SDS011;57198;52.082;5.108;2022-09-23T08:16:48;9.07;;;6.20;;
69912;SDS011;57198;52.082;5.108;2022-09-23T08:19:15;10.90;;;6.78;;
69912;SDS011;57198;52.082;5.108;2022-09-23T08:21:43;12.07;;;6.97;;
69912;SDS011;57198;52.082;5.108;2022-09-23T08:24:14;6.47;;;5.87;;
69912;SDS011;57198;52.082;5.108;2022-09-23T08:26:42;10.88;;;6.30;;
69912;SDS011;57198;52.082;5.108;2022-09-23T08:29:13;12.02;;;6.18;;
69912;SDS011;57198;52.082;5.108;2022-09-23T08:31:40;9.15;;;5.97;;
69912;SDS011;57198;52.082;5.108;2022-09-23T08:34:08;12.02;;;6.18;;
69912;SDS011;57198;52.082;5.108;2022-09-23T08:36:36;8.23;;;5.10;;
69912;SDS011;57198;52.082;5.108;2022-09-23T08:39:04;10.73;;;5.40;;
69912;SDS011;57198;52.082;5.108;2022-09-23T08:44:03;7.20;;;5.53;;
69912;SDS011;57198;52.082;5.108;2022-09-23T08:46:32;10.82;;;5.72;;
69912;SDS011;57198;52.082;5.108;2022-09-23T08:49:02;11.20;;;8.53;;
69912;SDS011;57198;52.082;5.108;2022-09-23T08:51:41;11.75;;;6.75;;
69912;SDS011;57198;52.082;5.108;2022-09-23T08:54:11;13.40;;;6.13;;
69912;SDS011;57198;52.082;5.108;2022-09-23T08:56:39;7.15;;;5.00;;
69912;SDS011;57198;52.082;5.108;2022-09-23T08:59:13;11.45;;;5.55;;
69912;SDS011;57198;52.082;5.108;2022-09-23T09:01:53;9.10;;;6.83;;
69912;SDS011;57198;52.082;5.108;2022-09-23T09:04:24;8.63;;;6.10;;
69912;SDS011;57198;52.082;5.108;2022-09-23T09:06:55;13.32;;;5.50;;
69912;SDS011;57198;52.082;5.108;2022-09-23T09:09:50;7.05;;;5.75;;
69912;SDS011;57198;52.082;5.108;2022-09-23T09:12:20;6.97;;;5.78;;
69912;SDS011;57198;52.082;5.108;2022-09-23T09:14:51;7.03;;;5.67;;
69912;SDS011;57198;52.082;5.108;2022-09-23T09:18:10;8.18;;;5.88;;
69912;SDS011;57198;52.082;5.108;2022-09-23T09:27:59;9.53;;;6.10;;
69912;SDS011;57198;52.082;5.108;2022-09-23T09:30:27;7.60;;;5.80;;
69912;SDS011;57198;52.082;5.108;2022-09-23T09:33:01;9.82;;;5.70;;
69912;SDS011;57198;52.082;5.108;2022-09-23T09:37:59;9.30;;;6.38;;
69912;SDS011;57198;52.082;5.108;2022-09-23T09:40:27;8.60;;;5.83;;
69912;SDS011;57198;52.082;5.108;2022-09-23T09:42:54;9.23;;;6.28;;
69912;SDS011;57198;52.082;5.108;2022-09-23T09:47:53;7.75;;;6.10;;
69912;SDS011;57198;52.082;5.108;2022-09-23T09:53:16;13.40;;;5.87;;
69912;SDS011;57198;52.082;5.108;2022-09-23T10:03:46;12.52;;;6.00;;
69912;SDS011;57198;52.082;5.108;2022-09-23T10:06:17;9.90;;;5.50;;
69912;SDS011;57198;52.082;5.108;2022-09-23T10:08:50;8.02;;;5.85;;
69912;SDS011;57198;52.082;5.108;2022-09-23T10:11:29;7.22;;;5.35;;
69912;SDS011;57198;52.082;5.108;2022-09-23T10:16:27;11.02;;;6.95;;
69912;SDS011;57198;52.082;5.108;2022-09-23T10:18:56;11.93;;;7.00;;
69912;SDS011;57198;52.082;5.108;2022-09-23T10:21:24;14.45;;;7.05;;
69912;SDS011;57198;52.082;5.108;2022-09-23T10:23:54;11.05;;;6.00;;
69912;SDS011;57198;52.082;5.108;2022-09-23T10:28:58;11.38;;;6.47;;
69912;SDS011;57198;52.082;5.108;2022-09-23T10:31:31;8.70;;;5.93;;
69912;SDS011;57198;52.082;5.108;2022-09-23T10:36:52;12.55;;;5.90;;
69912;SDS011;57198;52.082;5.108;2022-09-23T10:39:20;10.20;;;5.80;;
69912;SDS011;57198;52.082;5.108;2022-09-23T10:42:16;9.23;;;5.82;;
69912;SDS011;57198;52.082;5.108;2022-09-23T11:05:24;5.50;;;4.50;;
69912;SDS011;57198;52.082;5.108;2022-09-23T11:13:14;9.27;;;5.35;;
69912;SDS011;57198;52.082;5.108;2022-09-23T11:18:40;11.25;;;4.95;;
69912;SDS011;57198;52.082;5.108;2022-09-23T11:29:10;7.93;;;5.43;;
69912;SDS011;57198;52.082;5.108;2022-09-23T11:37:02;9.53;;;5.13;;
69912;SDS011;57198;52.082;5.108;2022-09-23T11:39:34;8.00;;;5.20;;
69912;SDS011;57198;52.082;5.108;2022-09-23T11:42:02;8.82;;;5.13;;
69912;SDS011;57198;52.082;5.108;2022-09-23T11:44:38;5.68;;;4.93;;
69912;SDS011;57198;52.082;5.108;2022-09-23T11:47:09;9.43;;;4.57;;
69912;SDS011;57198;52.082;5.108;2022-09-23T11:49:39;7.00;;;4.77;;
69912;SDS011;57198;52.082;5.108;2022-09-23T11:52:14;9.20;;;5.72;;
69912;SDS011;57198;52.082;5.108;2022-09-23T11:54:50;6.88;;;4.68;;
69912;SDS011;57198;52.082;5.108;2022-09-23T11:57:22;6.13;;;4.18;;
69912;SDS011;57198;52.082;5.108;2022-09-23T11:59:56;6.63;;;4.53;;
69912;SDS011;57198;52.082;5.108;2022-09-23T12:05:28;9.23;;;4.65;;
69912;SDS011;57198;52.082;5.108;2022-09-23T12:08:04;6.65;;;3.92;;
69912;SDS011;57198;52.082;5.108;2022-09-23T12:10:42;4.90;;;4.07;;
69912;SDS011;57198;52.082;5.108;2022-09-23T12:21:14;6.30;;;4.80;;
69912;SDS011;57198;52.082;5.108;2022-09-23T12:26:44;9.45;;;4.88;;
69912;SDS011;57198;52.082;5.108;2022-09-23T12:29:15;7.70;;;4.60;;
69912;SDS011;57198;52.082;5.108;2022-09-23T12:31:43;8.10;;;5.22;;
69912;SDS011;57198;52.082;5.108;2022-09-23T12:34:20;5.93;;;4.13;;
69912;SDS011;57198;52.082;5.108;2022-09-23T12:36:48;8.48;;;4.60;;
69912;SDS011;57198;52.082;5.108;2022-09-23T12:39:16;9.55;;;5.05;;
69912;SDS011;57198;52.082;5.108;2022-09-23T12:41:52;8.60;;;5.63;;
69912;SDS011;57198;52.082;5.108;2022-09-23T12:49:41;7.43;;;5.78;;
69912;SDS011;57198;52.082;5.108;2022-09-23T12:54:43;7.80;;;5.70;;
69912;SDS011;57198;52.082;5.108;2022-09-23T12:57:11;9.75;;;5.93;;
69912;SDS011;57198;52.082;5.108;2022-09-23T13:02:26;7.43;;;6.35;;
69912;SDS011;57198;52.082;5.108;2022-09-23T13:05:01;12.55;;;5.82;;
69912;SDS011;57198;52.082;5.108;2022-09-23T13:07:48;6.73;;;6.03;;
69912;SDS011;57198;52.082;5.108;2022-09-23T13:10:21;9.18;;;6.15;;
69912;SDS011;57198;52.082;5.108;2022-09-23T13:12:49;8.75;;;6.30;;
69912;SDS011;57198;52.082;5.108;2022-09-23T13:15:23;9.15;;;6.40;;
69912;SDS011;57198;52.082;5.108;2022-09-23T13:18:08;9.55;;;7.72;;
69912;SDS011;57198;52.082;5.108;2022-09-23T13:20:40;11.37;;;7.90;;
69912;SDS011;57198;52.082;5.108;2022-09-23T13:25:38;16.10;;;8.45;;
69912;SDS011;57198;52.082;5.108;2022-09-23T13:28:11;9.40;;;7.63;;
69912;SDS011;57198;52.082;5.108;2022-09-23T13:30:46;13.13;;;8.63;;
69912;SDS011;57198;52.082;5.108;2022-09-23T13:33:15;10.87;;;8.17;;
69912;SDS011;57198;52.082;5.108;2022-09-23T13:35:45;10.18;;;7.72;;
69912;SDS011;57198;52.082;5.108;2022-09-23T13:38:17;10.25;;;8.10;;
69912;SDS011;57198;52.082;5.108;2022-09-23T13:40:46;9.77;;;7.80;;
69912;SDS011;57198;52.082;5.108;2022-09-23T13:43:18;9.65;;;7.15;;
69912;SDS011;57198;52.082;5.108;2022-09-23T13:45:48;9.50;;;8.07;;
69912;SDS011;57198;52.082;5.108;2022-09-23T13:48:16;11.60;;;7.75;;
69912;SDS011;57198;52.082;5.108;2022-09-23T13:50:48;10.68;;;7.32;;
69912;SDS011;57198;52.082;5.108;2022-09-23T13:53:19;11.60;;;8.13;;
69912;SDS011;57198;52.082;5.108;2022-09-23T13:55:53;11.70;;;7.35;;
69912;SDS011;57198;52.082;5.108;2022-09-23T13:58:26;11.70;;;7.63;;
69912;SDS011;57198;52.082;5.108;2022-09-23T14:00:54;16.40;;;7.97;;
69912;SDS011;57198;52.082;5.108;2022-09-23T14:03:29;12.82;;;8.00;;
69912;SDS011;57198;52.082;5.108;2022-09-23T14:06:09;15.55;;;7.45;;
69912;SDS011;57198;52.082;5.108;2022-09-23T14:08:38;12.73;;;6.90;;
69912;SDS011;57198;52.082;5.108;2022-09-23T14:11:12;9.67;;;7.20;;
69912;SDS011;57198;52.082;5.108;2022-09-23T14:13:41;11.23;;;7.25;;
69912;SDS011;57198;52.082;5.108;2022-09-23T14:16:09;11.10;;;6.95;;
69912;SDS011;57198;52.082;5.108;2022-09-23T14:18:38;10.63;;;7.75;;
69912;SDS011;57198;52.082;5.108;2022-09-23T14:21:24;10.18;;;6.88;;
69912;SDS011;57198;52.082;5.108;2022-09-23T14:23:51;9.10;;;6.60;;
69912;SDS011;57198;52.082;5.108;2022-09-23T14:26:19;10.60;;;8.02;;
69912;SDS011;57198;52.082;5.108;2022-09-23T14:28:47;11.20;;;6.90;;
69912;SDS011;57198;52.082;5.108;2022-09-23T14:31:14;13.38;;;8.20;;
69912;SDS011;57198;52.082;5.108;2022-09-23T14:33:42;12.18;;;8.05;;
69912;SDS011;57198;52.082;5.108;2022-09-23T14:36:13;12.57;;;9.60;;
69912;SDS011;57198;52.082;5.108;2022-09-23T14:39:04;12.20;;;8.20;;
69912;SDS011;57198;52.082;5.108;2022-09-23T14:41:35;11.38;;;7.53;;
69912;SDS011;57198;52.082;5.108;2022-09-23T14:44:05;9.38;;;7.47;;
69912;SDS011;57198;52.082;5.108;2022-09-23T14:46:34;9.52;;;7.53;;
69912;SDS011;57198;52.082;5.108;2022-09-23T14:49:03;9.37;;;6.87;;
69912;SDS011;57198;52.082;5.108;2022-09-23T14:51:36;8.40;;;6.47;;
69912;SDS011;57198;52.082;5.108;2022-09-23T14:56:53;10.75;;;5.90;;
69912;SDS011;57198;52.082;5.108;2022-09-23T14:59:30;7.07;;;5.50;;
69912;SDS011;57198;52.082;5.108;2022-09-23T15:01:58;6.30;;;5.67;;
69912;SDS011;57198;52.082;5.108;2022-09-23T15:04:27;7.05;;;5.40;;
69912;SDS011;57198;52.082;5.108;2022-09-23T15:09:30;8.20;;;6.28;;
69912;SDS011;57198;52.082;5.108;2022-09-23T15:11:59;10.10;;;5.93;;
69912;SDS011;57198;52.082;5.108;2022-09-23T15:14:28;9.70;;;5.43;;
69912;SDS011;57198;52.082;5.108;2022-09-23T15:17:04;9.32;;;5.60;;
69912;SDS011;57198;52.082;5.108;2022-09-23T15:19:33;9.57;;;5.78;;
69912;SDS011;57198;52.082;5.108;2022-09-23T15:22:00;6.80;;;5.53;;
69912;SDS011;57198;52.082;5.108;2022-09-23T15:24:35;8.63;;;5.78;;
69912;SDS011;57198;52.082;5.108;2022-09-23T15:27:08;13.90;;;7.23;;
69912;SDS011;57198;52.082;5.108;2022-09-23T15:29:36;8.32;;;5.80;;
69912;SDS011;57198;52.082;5.108;2022-09-23T15:32:04;9.35;;;6.20;;
69912;SDS011;57198;52.082;5.108;2022-09-23T15:34:33;12.55;;;6.68;;
69912;SDS011;57198;52.082;5.108;2022-09-23T15:37:00;10.40;;;6.75;;
69912;SDS011;57198;52.082;5.108;2022-09-23T15:39:27;10.70;;;6.00;;
69912;SDS011;57198;52.082;5.108;2022-09-23T15:42:01;10.43;;;7.50;;
69912;SDS011;57198;52.082;5.108;2022-09-23T15:44:29;10.73;;;7.00;;
69912;SDS011;57198;52.082;5.108;2022-09-23T15:46:56;9.10;;;7.05;;
69912;SDS011;57198;52.082;5.108;2022-09-23T15:51:57;8.30;;;7.13;;
69912;SDS011;57198;52.082;5.108;2022-09-23T15:54:24;11.30;;;7.53;;
69912;SDS011;57198;52.082;5.108;2022-09-23T15:56:52;8.68;;;7.03;;
69912;SDS011;57198;52.082;5.108;2022-09-23T15:59:21;10.98;;;8.13;;
69912;SDS011;57198;52.082;5.108;2022-09-23T16:01:49;11.68;;;8.00;;
69912;SDS011;57198;52.082;5.108;2022-09-23T16:04:17;10.57;;;8.20;;
69912;SDS011;57198;52.082;5.108;2022-09-23T16:06:46;11.68;;;8.48;;
69912;SDS011;57198;52.082;5.108;2022-09-23T16:09:14;9.80;;;7.63;;
69912;SDS011;57198;52.082;5.108;2022-09-23T16:11:42;10.73;;;8.60;;
69912;SDS011;57198;52.082;5.108;2022-09-23T16:14:14;10.93;;;9.50;;
69912;SDS011;57198;52.082;5.108;2022-09-23T16:16:42;10.30;;;9.20;;
69912;SDS011;57198;52.082;5.108;2022-09-23T16:19:10;12.77;;;9.50;;
69912;SDS011;57198;52.082;5.108;2022-09-23T16:21:38;13.70;;;8.27;;
69912;SDS011;57198;52.082;5.108;2022-09-23T16:24:13;13.02;;;8.63;;
69912;SDS011;57198;52.082;5.108;2022-09-23T16:26:41;10.50;;;8.65;;
69912;SDS011;57198;52.082;5.108;2022-09-23T16:29:09;13.00;;;8.83;;
69912;SDS011;57198;52.082;5.108;2022-09-23T16:31:37;12.63;;;9.18;;
69912;SDS011;57198;52.082;5.108;2022-09-23T16:34:04;13.82;;;9.48;;
69912;SDS011;57198;52.082;5.108;2022-09-23T16:36:33;14.75;;;11.00;;
69912;SDS011;57198;52.082;5.108;2022-09-23T16:39:02;12.85;;;8.73;;
69912;SDS011;57198;52.082;5.108;2022-09-23T16:41:30;16.37;;;10.17;;
69912;SDS011;57198;52.082;5.108;2022-09-23T16:43:58;16.23;;;9.70;;
69912;SDS011;57198;52.082;5.108;2022-09-23T16:46:29;14.35;;;10.23;;
69912;SDS011;57198;52.082;5.108;2022-09-23T16:48:57;15.00;;;10.07;;
69912;SDS011;57198;52.082;5.108;2022-09-23T16:51:28;15.45;;;10.73;;
69912;SDS011;57198;52.082;5.108;2022-09-23T16:53:56;17.67;;;10.87;;
69912;SDS011;57198;52.082;5.108;2022-09-23T16:56:25;14.80;;;10.43;;
69912;SDS011;57198;52.082;5.108;2022-09-23T16:58:54;17.05;;;11.10;;
69912;SDS011;57198;52.082;5.108;2022-09-23T17:01:23;15.98;;;11.15;;
69912;SDS011;57198;52.082;5.108;2022-09-23T17:04:10;14.80;;;11.43;;
69912;SDS011;57198;52.082;5.108;2022-09-23T17:06:41;16.77;;;11.50;;
69912;SDS011;57198;52.082;5.108;2022-09-23T17:09:09;13.98;;;10.65;;
69912;SDS011;57198;52.082;5.108;2022-09-23T17:11:37;15.25;;;10.85;;
69912;SDS011;57198;52.082;5.108;2022-09-23T17:14:04;18.52;;;12.45;;
69912;SDS011;57198;52.082;5.108;2022-09-23T17:16:32;18.52;;;11.23;;
69912;SDS011;57198;52.082;5.108;2022-09-23T17:19:07;14.53;;;11.00;;
69912;SDS011;57198;52.082;5.108;2022-09-23T17:21:34;15.30;;;11.45;;
69912;SDS011;57198;52.082;5.108;2022-09-23T17:24:02;14.52;;;11.15;;
69912;SDS011;57198;52.082;5.108;2022-09-23T17:26:30;18.55;;;12.75;;
69912;SDS011;57198;52.082;5.108;2022-09-23T17:28:57;19.77;;;11.27;;
69912;SDS011;57198;52.082;5.108;2022-09-23T17:31:26;30.03;;;19.77;;
69912;SDS011;57198;52.082;5.108;2022-09-23T17:33:54;19.15;;;13.18;;
69912;SDS011;57198;52.082;5.108;2022-09-23T17:36:21;17.27;;;11.68;;
69912;SDS011;57198;52.082;5.108;2022-09-23T17:38:49;15.63;;;11.45;;